OMFJOMAA

Guest
Details From OMFJ - FUJAIRAH INTL
To OMAA - ABU DHABI INTL
Flight Number -
Tags generated
Created
Modified
Stats Distance 100 nm / 186 km
Max Altitude 5,200 ft / 1,585 m
Waypoints 3
Social Downloads 2
Likes 0
Share VATSIM

Download

Looking for another format? Having issues loading an existing format? Contact us
Advertisement - Login to hide

Notes

Basic altitude profile: - Ascent Rate: 2500ft/min - Ascent Speed: 250kts - Cruise Altitude: 35000ft - Cruise Speed: 420kts - Descent Rate: 1500ft/min - Descent Speed: 250kts Options: - Use NATs: yes - Use PACOTS: yes - Use low airways: yes - Use high airways: yes

Route

OMFJ BUBIN OMAA

ID Type Via Altitude Latitude Longitude Leg Dist Tot Dist Heading (true) Name
O OMFJ APT - 0 ft / 0 m 25.11212˚ 56.32422˚ - 0 nm - FUJAIRAH INTL
BUBIN FIX - 5,200 ft / 1,585 m 24.96167˚ 56.11167˚ 14 nm 14 nm 232° / 232° -
O OMAA APT - 0 ft / 0 m 24.43305˚ 54.65118˚ 85 nm 100 nm 249° / 248° ABU DHABI INTL

Altitude Profile

Advertisement - Login to hide

OMFJ

Details ICAO OMFJ (FJR)
Name FUJAIRAH INTL
Region United Arab Emirates
Timezone Asia/Dubai (UTC+4.0)
Stats Elevation 152 ft / 46 m (AMSL)
Location 25.112116° 56.324217°
Runways 1
Magnetic Variation 1.922° E

METAR

OMFJ 112100Z 26009KT 8000 NSC 22/13 Q1016 RMK A3000

Decode

TAF

Not found

Departure Runways

ID Width Length Bearing (true) Bearing (mag) Surface Threshold Offset Overrun Length
11 148 ft / 45 m 12,296 ft / 3,748 m 112.53° 110.61° Asphalt 2,296 ft / 700 m 328 ft / 100 m
29 148 ft / 45 m 12,296 ft / 3,748 m 292.55° 290.63° Asphalt 0 ft / 0 m 328 ft / 100 m

OMAA

Details ICAO OMAA (AUH)
Name ABU DHABI INTL
Region United Arab Emirates
Timezone Asia/Dubai (UTC+4.0)
Stats Elevation 88 ft / 27 m (AMSL)
Location 24.433049° 54.651182°
Runways 1
Magnetic Variation 1.979° E

METAR

OMAA 112100Z 27011KT 9999 SCT035 21/15 Q1017 NOSIG

Decode

TAF

TAF OMAA 111700Z 1118/1300 29008KT 8000 SCT035 TEMPO 1123/1205 BKN020 BECMG 1205/1207 32015KT BECMG 1218/1220 01004KT

Decode

Destination Runways

ID Width Length Bearing (true) Bearing (mag) Surface Threshold Offset Overrun Length
13 148 ft / 45 m 13,461 ft / 4,103 m 127.94° 125.96° Asphalt 0 ft / 0 m 180 ft / 55 m
31 148 ft / 45 m 13,461 ft / 4,103 m 307.95° 305.97° Asphalt 0 ft / 0 m 196 ft / 60 m

Approach Navaids

Runway Type Ident Frequency Range Bearing (true) Bearing (mag) Slope Elevation
13 Localiser IAE 108.90 MHz 18 nm / 33 km 127.95° 125.97° - 110 ft / 34 m (AMSL)
13 Glidescope IAE 108.90 MHz 10 nm / 19 km 127.94° 125.96° 3.00° 120 ft / 37 m (AMSL)
13 DME IAE 108.90 MHz 18 nm / 33 km - - - 98 ft / 30 m (AMSL)
31 Localiser IAW 109.30 MHz 18 nm / 33 km 307.93° 305.95° - 88 ft / 27 m (AMSL)
31 Glidescope IAW 109.30 MHz 10 nm / 19 km 307.94° 305.96° 3.00° 122 ft / 37 m (AMSL)
31 DME IAW 109.30 MHz 18 nm / 33 km - - - 96 ft / 29 m (AMSL)

Popular Alternatives